sensor_id;sensor_type;location;lat;lon;timestamp;P1;durP1;ratioP1;P2;durP2;ratioP2
17915;SDS011;9083;49.156;8.982;2023-05-06T00:00:19;3.97;;;2.30;;
17915;SDS011;9083;49.156;8.982;2023-05-06T00:02:46;3.93;;;2.33;;
17915;SDS011;9083;49.156;8.982;2023-05-06T00:05:14;2.53;;;2.33;;
17915;SDS011;9083;49.156;8.982;2023-05-06T00:07:42;3.33;;;2.10;;
17915;SDS011;9083;49.156;8.982;2023-05-06T00:10:09;3.17;;;2.43;;
17915;SDS011;9083;49.156;8.982;2023-05-06T00:12:35;3.47;;;1.87;;
17915;SDS011;9083;49.156;8.982;2023-05-06T00:15:02;3.87;;;2.50;;
17915;SDS011;9083;49.156;8.982;2023-05-06T00:17:28;2.87;;;2.20;;
17915;SDS011;9083;49.156;8.982;2023-05-06T00:19:54;3.87;;;2.50;;
17915;SDS011;9083;49.156;8.982;2023-05-06T00:22:24;2.70;;;2.50;;
17915;SDS011;9083;49.156;8.982;2023-05-06T00:24:50;2.40;;;2.30;;
17915;SDS011;9083;49.156;8.982;2023-05-06T00:27:16;2.40;;;2.30;;
17915;SDS011;9083;49.156;8.982;2023-05-06T00:29:43;2.60;;;2.40;;
17915;SDS011;9083;49.156;8.982;2023-05-06T00:32:10;3.30;;;2.57;;
17915;SDS011;9083;49.156;8.982;2023-05-06T00:34:36;2.10;;;2.00;;
17915;SDS011;9083;49.156;8.982;2023-05-06T00:37:02;3.17;;;2.73;;
17915;SDS011;9083;49.156;8.982;2023-05-06T00:39:30;2.47;;;2.23;;
17915;SDS011;9083;49.156;8.982;2023-05-06T00:41:58;2.37;;;2.17;;
17915;SDS011;9083;49.156;8.982;2023-05-06T00:44:24;2.30;;;2.20;;
17915;SDS011;9083;49.156;8.982;2023-05-06T00:46:51;2.90;;;2.63;;
17915;SDS011;9083;49.156;8.982;2023-05-06T00:49:17;4.37;;;2.30;;
17915;SDS011;9083;49.156;8.982;2023-05-06T00:51:44;3.60;;;2.40;;
17915;SDS011;9083;49.156;8.982;2023-05-06T00:54:10;4.60;;;2.20;;
17915;SDS011;9083;49.156;8.982;2023-05-06T00:56:39;2.67;;;2.27;;
17915;SDS011;9083;49.156;8.982;2023-05-06T00:59:06;2.80;;;2.60;;
17915;SDS011;9083;49.156;8.982;2023-05-06T01:01:32;6.03;;;2.43;;
17915;SDS011;9083;49.156;8.982;2023-05-06T01:03:59;3.77;;;2.40;;
17915;SDS011;9083;49.156;8.982;2023-05-06T01:06:28;2.87;;;2.63;;
17915;SDS011;9083;49.156;8.982;2023-05-06T01:09:01;3.63;;;2.93;;
17915;SDS011;9083;49.156;8.982;2023-05-06T01:11:32;3.17;;;2.37;;
17915;SDS011;9083;49.156;8.982;2023-05-06T01:14:05;3.00;;;2.77;;
17915;SDS011;9083;49.156;8.982;2023-05-06T01:16:33;3.40;;;2.77;;
17915;SDS011;9083;49.156;8.982;2023-05-06T01:19:01;5.47;;;2.97;;
17915;SDS011;9083;49.156;8.982;2023-05-06T01:21:31;4.33;;;2.83;;
17915;SDS011;9083;49.156;8.982;2023-05-06T01:24:01;5.30;;;3.37;;
17915;SDS011;9083;49.156;8.982;2023-05-06T01:26:27;5.57;;;3.50;;
17915;SDS011;9083;49.156;8.982;2023-05-06T01:28:54;7.87;;;3.57;;
17915;SDS011;9083;49.156;8.982;2023-05-06T01:31:23;5.17;;;3.33;;
17915;SDS011;9083;49.156;8.982;2023-05-06T01:34:01;4.37;;;2.53;;
17915;SDS011;9083;49.156;8.982;2023-05-06T01:36:32;3.70;;;3.40;;
17915;SDS011;9083;49.156;8.982;2023-05-06T01:39:05;3.67;;;3.27;;
17915;SDS011;9083;49.156;8.982;2023-05-06T01:41:33;6.00;;;3.60;;
17915;SDS011;9083;49.156;8.982;2023-05-06T01:44:01;6.47;;;3.53;;
17915;SDS011;9083;49.156;8.982;2023-05-06T01:46:29;3.30;;;3.00;;
17915;SDS011;9083;49.156;8.982;2023-05-06T01:48:57;5.10;;;3.47;;
17915;SDS011;9083;49.156;8.982;2023-05-06T01:51:25;3.63;;;3.33;;
17915;SDS011;9083;49.156;8.982;2023-05-06T01:53:52;4.47;;;4.03;;
17915;SDS011;9083;49.156;8.982;2023-05-06T01:56:20;6.47;;;3.37;;
17915;SDS011;9083;49.156;8.982;2023-05-06T01:58:46;4.33;;;3.83;;
17915;SDS011;9083;49.156;8.982;2023-05-06T02:01:12;5.30;;;3.90;;
17915;SDS011;9083;49.156;8.982;2023-05-06T02:03:39;4.50;;;3.53;;
17915;SDS011;9083;49.156;8.982;2023-05-06T02:06:05;4.83;;;3.60;;
17915;SDS011;9083;49.156;8.982;2023-05-06T02:08:32;4.33;;;3.93;;
17915;SDS011;9083;49.156;8.982;2023-05-06T02:10:58;6.17;;;4.13;;
17915;SDS011;9083;49.156;8.982;2023-05-06T02:13:29;4.00;;;3.70;;
17915;SDS011;9083;49.156;8.982;2023-05-06T02:15:56;4.23;;;3.80;;
17915;SDS011;9083;49.156;8.982;2023-05-06T02:18:22;5.07;;;3.30;;
17915;SDS011;9083;49.156;8.982;2023-05-06T02:20:49;4.40;;;4.00;;
17915;SDS011;9083;49.156;8.982;2023-05-06T02:23:15;7.37;;;4.00;;
17915;SDS011;9083;49.156;8.982;2023-05-06T02:25:42;5.80;;;4.40;;
17915;SDS011;9083;49.156;8.982;2023-05-06T02:28:08;7.17;;;4.40;;
17915;SDS011;9083;49.156;8.982;2023-05-06T02:30:36;6.77;;;5.30;;
17915;SDS011;9083;49.156;8.982;2023-05-06T02:33:02;5.50;;;5.00;;
17915;SDS011;9083;49.156;8.982;2023-05-06T02:35:29;7.20;;;5.40;;
17915;SDS011;9083;49.156;8.982;2023-05-06T02:37:55;10.93;;;4.57;;
17915;SDS011;9083;49.156;8.982;2023-05-06T02:40:22;5.67;;;5.00;;
17915;SDS011;9083;49.156;8.982;2023-05-06T02:42:48;5.93;;;4.63;;
17915;SDS011;9083;49.156;8.982;2023-05-06T02:45:14;5.47;;;4.27;;
17915;SDS011;9083;49.156;8.982;2023-05-06T02:47:42;6.93;;;5.20;;
17915;SDS011;9083;49.156;8.982;2023-05-06T02:50:09;5.73;;;4.93;;
17915;SDS011;9083;49.156;8.982;2023-05-06T02:52:35;6.67;;;4.80;;
17915;SDS011;9083;49.156;8.982;2023-05-06T02:55:02;7.77;;;4.73;;
17915;SDS011;9083;49.156;8.982;2023-05-06T02:57:28;6.20;;;4.43;;
17915;SDS011;9083;49.156;8.982;2023-05-06T02:59:55;9.10;;;5.07;;
17915;SDS011;9083;49.156;8.982;2023-05-06T03:02:21;6.27;;;4.67;;
17915;SDS011;9083;49.156;8.982;2023-05-06T03:04:49;7.57;;;5.20;;
17915;SDS011;9083;49.156;8.982;2023-05-06T03:07:15;5.77;;;5.13;;
17915;SDS011;9083;49.156;8.982;2023-05-06T03:09:42;6.70;;;5.77;;
17915;SDS011;9083;49.156;8.982;2023-05-06T03:12:08;5.87;;;5.37;;
17915;SDS011;9083;49.156;8.982;2023-05-06T03:14:35;8.30;;;5.80;;
17915;SDS011;9083;49.156;8.982;2023-05-06T03:17:02;7.27;;;5.57;;
17915;SDS011;9083;49.156;8.982;2023-05-06T03:19:28;6.77;;;6.00;;
17915;SDS011;9083;49.156;8.982;2023-05-06T03:21:56;6.60;;;5.87;;
17915;SDS011;9083;49.156;8.982;2023-05-06T03:24:22;6.80;;;5.17;;
17915;SDS011;9083;49.156;8.982;2023-05-06T03:26:49;10.43;;;6.20;;
17915;SDS011;9083;49.156;8.982;2023-05-06T03:29:15;7.87;;;6.17;;
17915;SDS011;9083;49.156;8.982;2023-05-06T03:31:42;11.30;;;6.47;;
17915;SDS011;9083;49.156;8.982;2023-05-06T03:34:08;7.47;;;5.53;;
17915;SDS011;9083;49.156;8.982;2023-05-06T03:36:34;8.40;;;6.27;;
17915;SDS011;9083;49.156;8.982;2023-05-06T03:39:02;9.93;;;6.73;;
17915;SDS011;9083;49.156;8.982;2023-05-06T03:41:29;7.70;;;6.00;;
17915;SDS011;9083;49.156;8.982;2023-05-06T03:43:55;6.00;;;5.33;;
17915;SDS011;9083;49.156;8.982;2023-05-06T03:46:22;9.33;;;5.80;;
17915;SDS011;9083;49.156;8.982;2023-05-06T03:48:48;10.10;;;6.17;;
17915;SDS011;9083;49.156;8.982;2023-05-06T03:51:14;10.53;;;6.30;;
17915;SDS011;9083;49.156;8.982;2023-05-06T03:53:41;10.40;;;5.80;;
17915;SDS011;9083;49.156;8.982;2023-05-06T03:56:09;8.13;;;6.13;;
17915;SDS011;9083;49.156;8.982;2023-05-06T03:58:35;8.03;;;6.67;;
17915;SDS011;9083;49.156;8.982;2023-05-06T04:01:01;8.03;;;6.57;;
17915;SDS011;9083;49.156;8.982;2023-05-06T04:03:28;12.63;;;6.57;;
17915;SDS011;9083;49.156;8.982;2023-05-06T04:05:55;10.43;;;6.57;;
17915;SDS011;9083;49.156;8.982;2023-05-06T04:08:21;9.63;;;6.43;;
17915;SDS011;9083;49.156;8.982;2023-05-06T04:10:47;8.33;;;6.23;;
17915;SDS011;9083;49.156;8.982;2023-05-06T04:13:15;7.27;;;6.20;;
17915;SDS011;9083;49.156;8.982;2023-05-06T04:15:42;7.77;;;6.57;;
17915;SDS011;9083;49.156;8.982;2023-05-06T04:18:08;9.33;;;6.87;;
17915;SDS011;9083;49.156;8.982;2023-05-06T04:20:35;8.70;;;7.43;;
17915;SDS011;9083;49.156;8.982;2023-05-06T04:23:02;8.87;;;6.47;;
17915;SDS011;9083;49.156;8.982;2023-05-06T04:25:29;12.13;;;7.33;;
17915;SDS011;9083;49.156;8.982;2023-05-06T04:27:55;11.83;;;6.73;;
17915;SDS011;9083;49.156;8.982;2023-05-06T04:30:23;10.23;;;6.80;;
17915;SDS011;9083;49.156;8.982;2023-05-06T04:32:49;13.00;;;8.20;;
17915;SDS011;9083;49.156;8.982;2023-05-06T04:35:16;7.53;;;6.70;;
17915;SDS011;9083;49.156;8.982;2023-05-06T04:37:42;10.10;;;6.40;;
17915;SDS011;9083;49.156;8.982;2023-05-06T04:40:09;12.47;;;7.37;;
17915;SDS011;9083;49.156;8.982;2023-05-06T04:42:37;8.93;;;6.97;;
17915;SDS011;9083;49.156;8.982;2023-05-06T04:45:04;11.43;;;6.60;;
17915;SDS011;9083;49.156;8.982;2023-05-06T04:47:32;8.03;;;6.43;;
17915;SDS011;9083;49.156;8.982;2023-05-06T04:49:58;9.67;;;6.60;;
17915;SDS011;9083;49.156;8.982;2023-05-06T04:52:25;9.83;;;6.33;;
17915;SDS011;9083;49.156;8.982;2023-05-06T04:54:51;6.70;;;6.00;;
17915;SDS011;9083;49.156;8.982;2023-05-06T04:57:17;12.10;;;6.67;;
17915;SDS011;9083;49.156;8.982;2023-05-06T04:59:44;7.57;;;6.00;;
17915;SDS011;9083;49.156;8.982;2023-05-06T05:02:10;10.13;;;6.97;;
17915;SDS011;9083;49.156;8.982;2023-05-06T05:04:38;8.50;;;6.33;;
17915;SDS011;9083;49.156;8.982;2023-05-06T05:07:05;10.13;;;6.63;;
17915;SDS011;9083;49.156;8.982;2023-05-06T05:09:31;12.63;;;6.80;;
17915;SDS011;9083;49.156;8.982;2023-05-06T05:11:57;11.23;;;7.13;;
17915;SDS011;9083;49.156;8.982;2023-05-06T05:14:26;8.00;;;6.70;;
17915;SDS011;9083;49.156;8.982;2023-05-06T05:16:52;9.67;;;7.17;;
17915;SDS011;9083;49.156;8.982;2023-05-06T05:19:18;12.20;;;7.20;;
17915;SDS011;9083;49.156;8.982;2023-05-06T05:21:46;8.03;;;7.10;;
17915;SDS011;9083;49.156;8.982;2023-05-06T05:24:13;9.00;;;7.07;;
17915;SDS011;9083;49.156;8.982;2023-05-06T05:26:40;16.20;;;7.73;;
17915;SDS011;9083;49.156;8.982;2023-05-06T05:29:06;12.33;;;8.23;;
17915;SDS011;9083;49.156;8.982;2023-05-06T05:31:32;15.60;;;8.83;;
17915;SDS011;9083;49.156;8.982;2023-05-06T05:33:59;11.70;;;7.37;;
17915;SDS011;9083;49.156;8.982;2023-05-06T05:36:25;10.83;;;7.93;;
17915;SDS011;9083;49.156;8.982;2023-05-06T05:38:53;7.80;;;6.73;;
17915;SDS011;9083;49.156;8.982;2023-05-06T05:41:20;24.13;;;16.37;;
17915;SDS011;9083;49.156;8.982;2023-05-06T05:43:46;23.23;;;15.63;;
17915;SDS011;9083;49.156;8.982;2023-05-06T05:46:12;16.53;;;11.20;;
17915;SDS011;9083;49.156;8.982;2023-05-06T05:48:39;10.53;;;8.50;;
17915;SDS011;9083;49.156;8.982;2023-05-06T05:51:05;15.33;;;8.67;;
17915;SDS011;9083;49.156;8.982;2023-05-06T05:53:32;11.70;;;7.50;;
17915;SDS011;9083;49.156;8.982;2023-05-06T05:55:59;12.93;;;8.70;;
17915;SDS011;9083;49.156;8.982;2023-05-06T05:58:26;13.20;;;8.97;;
17915;SDS011;9083;49.156;8.982;2023-05-06T06:00:52;9.80;;;7.83;;
17915;SDS011;9083;49.156;8.982;2023-05-06T06:03:19;13.17;;;7.23;;
17915;SDS011;9083;49.156;8.982;2023-05-06T06:05:45;13.67;;;8.23;;
17915;SDS011;9083;49.156;8.982;2023-05-06T06:08:15;11.27;;;7.40;;
17915;SDS011;9083;49.156;8.982;2023-05-06T06:10:42;10.43;;;8.63;;
17915;SDS011;9083;49.156;8.982;2023-05-06T06:13:16;12.73;;;8.27;;
17915;SDS011;9083;49.156;8.982;2023-05-06T06:15:51;13.77;;;8.63;;
17915;SDS011;9083;49.156;8.982;2023-05-06T06:18:18;12.57;;;8.27;;
17915;SDS011;9083;49.156;8.982;2023-05-06T06:20:44;14.40;;;8.27;;
17915;SDS011;9083;49.156;8.982;2023-05-06T06:23:11;16.63;;;8.83;;
17915;SDS011;9083;49.156;8.982;2023-05-06T06:25:37;9.93;;;7.60;;
17915;SDS011;9083;49.156;8.982;2023-05-06T06:28:04;12.83;;;8.07;;
17915;SDS011;9083;49.156;8.982;2023-05-06T06:30:31;19.63;;;9.93;;
17915;SDS011;9083;49.156;8.982;2023-05-06T06:32:58;15.70;;;9.50;;
17915;SDS011;9083;49.156;8.982;2023-05-06T06:35:25;15.57;;;10.27;;
17915;SDS011;9083;49.156;8.982;2023-05-06T06:37:52;14.27;;;9.63;;
17915;SDS011;9083;49.156;8.982;2023-05-06T06:40:18;16.73;;;8.27;;
17915;SDS011;9083;49.156;8.982;2023-05-06T06:42:45;10.83;;;8.67;;
17915;SDS011;9083;49.156;8.982;2023-05-06T06:45:12;12.17;;;8.30;;
17915;SDS011;9083;49.156;8.982;2023-05-06T06:47:40;14.03;;;9.33;;
17915;SDS011;9083;49.156;8.982;2023-05-06T06:50:07;12.73;;;8.83;;
17915;SDS011;9083;49.156;8.982;2023-05-06T06:52:33;10.60;;;8.87;;
17915;SDS011;9083;49.156;8.982;2023-05-06T06:55:00;15.70;;;9.53;;
17915;SDS011;9083;49.156;8.982;2023-05-06T06:57:26;12.50;;;8.80;;
17915;SDS011;9083;49.156;8.982;2023-05-06T06:59:53;13.03;;;8.90;;
17915;SDS011;9083;49.156;8.982;2023-05-06T07:02:20;10.07;;;8.60;;
17915;SDS011;9083;49.156;8.982;2023-05-06T07:04:47;10.63;;;7.97;;
17915;SDS011;9083;49.156;8.982;2023-05-06T07:07:14;12.47;;;8.30;;
17915;SDS011;9083;49.156;8.982;2023-05-06T07:09:40;12.17;;;8.07;;
17915;SDS011;9083;49.156;8.982;2023-05-06T07:12:08;10.63;;;7.87;;
17915;SDS011;9083;49.156;8.982;2023-05-06T07:14:34;13.53;;;7.27;;
17915;SDS011;9083;49.156;8.982;2023-05-06T07:17:01;9.13;;;6.70;;
17915;SDS011;9083;49.156;8.982;2023-05-06T07:19:27;8.60;;;7.50;;
17915;SDS011;9083;49.156;8.982;2023-05-06T07:21:56;14.03;;;6.60;;
17915;SDS011;9083;49.156;8.982;2023-05-06T07:24:22;9.67;;;6.20;;
17915;SDS011;9083;49.156;8.982;2023-05-06T07:26:48;18.13;;;7.63;;
17915;SDS011;9083;49.156;8.982;2023-05-06T07:29:15;11.73;;;6.00;;
17915;SDS011;9083;49.156;8.982;2023-05-06T07:31:41;12.60;;;6.40;;
17915;SDS011;9083;49.156;8.982;2023-05-06T07:34:08;14.50;;;8.03;;
17915;SDS011;9083;49.156;8.982;2023-05-06T07:36:34;11.07;;;6.77;;
17915;SDS011;9083;49.156;8.982;2023-05-06T07:39:05;9.20;;;7.40;;
17915;SDS011;9083;49.156;8.982;2023-05-06T07:41:32;13.93;;;6.70;;
17915;SDS011;9083;49.156;8.982;2023-05-06T07:43:58;8.87;;;6.07;;
17915;SDS011;9083;49.156;8.982;2023-05-06T07:46:25;7.57;;;5.73;;
17915;SDS011;9083;49.156;8.982;2023-05-06T07:48:51;9.03;;;6.07;;
17915;SDS011;9083;49.156;8.982;2023-05-06T07:51:18;6.83;;;4.73;;
17915;SDS011;9083;49.156;8.982;2023-05-06T07:53:44;3.70;;;3.40;;
17915;SDS011;9083;49.156;8.982;2023-05-06T07:56:12;6.77;;;4.47;;
17915;SDS011;9083;49.156;8.982;2023-05-06T07:58:38;4.63;;;3.87;;
17915;SDS011;9083;49.156;8.982;2023-05-06T08:01:05;4.80;;;4.37;;
17915;SDS011;9083;49.156;8.982;2023-05-06T08:03:31;5.77;;;3.70;;
17915;SDS011;9083;49.156;8.982;2023-05-06T08:05:57;5.37;;;4.83;;
17915;SDS011;9083;49.156;8.982;2023-05-06T08:08:24;4.40;;;3.83;;
17915;SDS011;9083;49.156;8.982;2023-05-06T08:10:51;5.83;;;4.40;;
17915;SDS011;9083;49.156;8.982;2023-05-06T08:13:19;4.43;;;4.03;;
17915;SDS011;9083;49.156;8.982;2023-05-06T08:15:46;5.27;;;3.47;;
17915;SDS011;9083;49.156;8.982;2023-05-06T08:18:12;4.50;;;4.20;;
17915;SDS011;9083;49.156;8.982;2023-05-06T08:20:38;8.30;;;4.47;;
17915;SDS011;9083;49.156;8.982;2023-05-06T08:23:05;3.50;;;3.17;;
17915;SDS011;9083;49.156;8.982;2023-05-06T08:25:31;5.90;;;3.47;;
17915;SDS011;9083;49.156;8.982;2023-05-06T08:27:58;3.83;;;3.30;;
17915;SDS011;9083;49.156;8.982;2023-05-06T08:30:25;4.63;;;2.30;;
17915;SDS011;9083;49.156;8.982;2023-05-06T08:32:52;2.93;;;2.50;;
17915;SDS011;9083;49.156;8.982;2023-05-06T08:35:19;3.43;;;2.63;;
17915;SDS011;9083;49.156;8.982;2023-05-06T08:37:45;3.23;;;2.97;;
17915;SDS011;9083;49.156;8.982;2023-05-06T08:40:14;3.50;;;2.57;;
17915;SDS011;9083;49.156;8.982;2023-05-06T08:42:43;3.23;;;3.03;;
17915;SDS011;9083;49.156;8.982;2023-05-06T08:45:10;12.90;;;3.00;;
17915;SDS011;9083;49.156;8.982;2023-05-06T08:47:38;2.40;;;2.20;;
17915;SDS011;9083;49.156;8.982;2023-05-06T08:50:05;5.33;;;2.67;;
17915;SDS011;9083;49.156;8.982;2023-05-06T08:52:32;2.50;;;2.30;;
17915;SDS011;9083;49.156;8.982;2023-05-06T08:54:59;2.20;;;2.00;;
17915;SDS011;9083;49.156;8.982;2023-05-06T08:57:29;3.20;;;2.27;;
17915;SDS011;9083;49.156;8.982;2023-05-06T08:59:55;2.17;;;1.87;;
17915;SDS011;9083;49.156;8.982;2023-05-06T09:02:22;3.93;;;2.10;;
17915;SDS011;9083;49.156;8.982;2023-05-06T09:04:51;4.13;;;2.00;;
17915;SDS011;9083;49.156;8.982;2023-05-06T09:07:19;2.90;;;2.43;;
17915;SDS011;9083;49.156;8.982;2023-05-06T09:09:45;3.17;;;2.33;;
17915;SDS011;9083;49.156;8.982;2023-05-06T09:12:12;1.90;;;1.80;;
17915;SDS011;9083;49.156;8.982;2023-05-06T09:14:39;4.13;;;2.07;;
17915;SDS011;9083;49.156;8.982;2023-05-06T09:17:14;1.80;;;1.70;;
17915;SDS011;9083;49.156;8.982;2023-05-06T09:19:41;6.50;;;1.73;;
17915;SDS011;9083;49.156;8.982;2023-05-06T09:22:09;1.47;;;0.97;;
17915;SDS011;9083;49.156;8.982;2023-05-06T09:24:36;1.37;;;1.27;;
17915;SDS011;9083;49.156;8.982;2023-05-06T09:27:02;0.97;;;0.97;;
17915;SDS011;9083;49.156;8.982;2023-05-06T09:29:28;11.30;;;2.43;;
17915;SDS011;9083;49.156;8.982;2023-05-06T09:31:55;3.03;;;1.20;;
17915;SDS011;9083;49.156;8.982;2023-05-06T09:34:22;18.10;;;2.73;;
17915;SDS011;9083;49.156;8.982;2023-05-06T09:36:48;1.30;;;1.20;;
17915;SDS011;9083;49.156;8.982;2023-05-06T09:39:18;2.70;;;1.30;;
17915;SDS011;9083;49.156;8.982;2023-05-06T09:41:50;1.10;;;1.03;;
17915;SDS011;9083;49.156;8.982;2023-05-06T09:44:16;0.93;;;0.93;;
17915;SDS011;9083;49.156;8.982;2023-05-06T09:46:43;2.37;;;1.23;;
17915;SDS011;9083;49.156;8.982;2023-05-06T09:49:10;1.40;;;1.30;;
17915;SDS011;9083;49.156;8.982;2023-05-06T09:51:37;1.63;;;1.00;;
17915;SDS011;9083;49.156;8.982;2023-05-06T09:54:05;4.60;;;1.40;;
17915;SDS011;9083;49.156;8.982;2023-05-06T09:56:33;1.17;;;0.90;;
17915;SDS011;9083;49.156;8.982;2023-05-06T09:59:00;1.43;;;1.10;;
17915;SDS011;9083;49.156;8.982;2023-05-06T10:01:28;1.43;;;1.20;;
17915;SDS011;9083;49.156;8.982;2023-05-06T10:03:55;1.33;;;0.90;;
17915;SDS011;9083;49.156;8.982;2023-05-06T10:06:21;1.17;;;1.07;;
17915;SDS011;9083;49.156;8.982;2023-05-06T10:08:48;2.33;;;1.13;;
17915;SDS011;9083;49.156;8.982;2023-05-06T10:11:15;1.23;;;1.13;;
17915;SDS011;9083;49.156;8.982;2023-05-06T10:13:43;1.13;;;1.03;;
17915;SDS011;9083;49.156;8.982;2023-05-06T10:16:11;1.30;;;0.93;;
17915;SDS011;9083;49.156;8.982;2023-05-06T10:18:38;1.10;;;1.03;;
17915;SDS011;9083;49.156;8.982;2023-05-06T10:21:07;1.57;;;1.00;;
17915;SDS011;9083;49.156;8.982;2023-05-06T10:23:36;1.33;;;0.80;;
17915;SDS011;9083;49.156;8.982;2023-05-06T10:26:06;0.93;;;0.93;;
17915;SDS011;9083;49.156;8.982;2023-05-06T10:28:33;1.17;;;1.17;;
17915;SDS011;9083;49.156;8.982;2023-05-06T10:31:07;1.02;;;1.00;;
17915;SDS011;9083;49.156;8.982;2023-05-06T10:33:35;1.10;;;1.10;;
17915;SDS011;9083;49.156;8.982;2023-05-06T10:36:06;1.20;;;1.10;;
17915;SDS011;9083;49.156;8.982;2023-05-06T10:38:38;0.75;;;0.75;;
17915;SDS011;9083;49.156;8.982;2023-05-06T10:41:06;2.87;;;1.07;;
17915;SDS011;9083;49.156;8.982;2023-05-06T10:43:33;1.58;;;1.13;;
17915;SDS011;9083;49.156;8.982;2023-05-06T10:46:00;1.30;;;1.20;;
17915;SDS011;9083;49.156;8.982;2023-05-06T10:48:29;1.38;;;1.00;;
17915;SDS011;9083;49.156;8.982;2023-05-06T10:53:55;0.88;;;0.88;;
17915;SDS011;9083;49.156;8.982;2023-05-06T10:56:22;1.73;;;0.90;;
17915;SDS011;9083;49.156;8.982;2023-05-06T10:58:49;3.38;;;0.95;;
17915;SDS011;9083;49.156;8.982;2023-05-06T11:01:15;1.13;;;0.80;;
17915;SDS011;9083;49.156;8.982;2023-05-06T11:03:43;0.85;;;0.70;;
17915;SDS011;9083;49.156;8.982;2023-05-06T11:06:10;0.90;;;0.90;;
17915;SDS011;9083;49.156;8.982;2023-05-06T11:08:36;1.30;;;1.20;;
17915;SDS011;9083;49.156;8.982;2023-05-06T11:11:45;1.02;;;0.90;;
17915;SDS011;9083;49.156;8.982;2023-05-06T11:14:10;1.17;;;1.10;;
17915;SDS011;9083;49.156;8.982;2023-05-06T11:16:46;3.03;;;1.38;;
17915;SDS011;9083;49.156;8.982;2023-05-06T11:19:17;1.80;;;1.70;;
17915;SDS011;9083;49.156;8.982;2023-05-06T11:21:44;3.42;;;1.13;;
17915;SDS011;9083;49.156;8.982;2023-05-06T11:24:11;1.90;;;1.23;;
17915;SDS011;9083;49.156;8.982;2023-05-06T11:26:41;1.05;;;1.00;;
17915;SDS011;9083;49.156;8.982;2023-05-06T11:29:08;0.93;;;0.93;;
17915;SDS011;9083;49.156;8.982;2023-05-06T11:31:39;1.35;;;1.23;;
17915;SDS011;9083;49.156;8.982;2023-05-06T11:34:06;1.25;;;1.25;;
17915;SDS011;9083;49.156;8.982;2023-05-06T11:36:35;1.10;;;1.10;;
17915;SDS011;9083;49.156;8.982;2023-05-06T11:39:05;1.17;;;1.10;;
17915;SDS011;9083;49.156;8.982;2023-05-06T11:41:32;1.00;;;1.00;;
17915;SDS011;9083;49.156;8.982;2023-05-06T11:43:58;0.90;;;0.90;;
17915;SDS011;9083;49.156;8.982;2023-05-06T11:46:25;0.90;;;0.90;;
17915;SDS011;9083;49.156;8.982;2023-05-06T11:48:54;4.18;;;1.08;;
17915;SDS011;9083;49.156;8.982;2023-05-06T11:51:21;1.42;;;1.00;;
17915;SDS011;9083;49.156;8.982;2023-05-06T11:53:48;1.17;;;1.10;;
17915;SDS011;9083;49.156;8.982;2023-05-06T11:56:15;1.17;;;0.80;;
17915;SDS011;9083;49.156;8.982;2023-05-06T11:58:42;0.70;;;0.70;;
17915;SDS011;9083;49.156;8.982;2023-05-06T12:01:08;1.00;;;0.98;;
17915;SDS011;9083;49.156;8.982;2023-05-06T12:03:34;0.85;;;0.85;;
17915;SDS011;9083;49.156;8.982;2023-05-06T12:06:01;0.77;;;0.77;;
17915;SDS011;9083;49.156;8.982;2023-05-06T12:08:28;1.85;;;0.85;;
17915;SDS011;9083;49.156;8.982;2023-05-06T12:10:56;0.77;;;0.77;;
17915;SDS011;9083;49.156;8.982;2023-05-06T12:13:24;0.93;;;0.93;;
17915;SDS011;9083;49.156;8.982;2023-05-06T12:15:50;2.85;;;0.90;;
17915;SDS011;9083;49.156;8.982;2023-05-06T12:18:18;3.42;;;1.20;;
17915;SDS011;9083;49.156;8.982;2023-05-06T12:20:45;0.90;;;0.90;;
17915;SDS011;9083;49.156;8.982;2023-05-06T12:23:12;0.80;;;0.80;;
17915;SDS011;9083;49.156;8.982;2023-05-06T12:25:39;0.82;;;0.70;;
17915;SDS011;9083;49.156;8.982;2023-05-06T12:28:13;1.35;;;0.88;;
17915;SDS011;9083;49.156;8.982;2023-05-06T12:30:40;3.35;;;1.35;;
17915;SDS011;9083;49.156;8.982;2023-05-06T12:33:07;2.97;;;0.77;;
17915;SDS011;9083;49.156;8.982;2023-05-06T12:35:33;0.80;;;0.80;;
17915;SDS011;9083;49.156;8.982;2023-05-06T12:38:06;1.08;;;0.88;;
17915;SDS011;9083;49.156;8.982;2023-05-06T12:40:33;0.95;;;0.55;;
17915;SDS011;9083;49.156;8.982;2023-05-06T12:42:59;1.02;;;0.90;;
17915;SDS011;9083;49.156;8.982;2023-05-06T12:45:27;0.85;;;0.85;;
17915;SDS011;9083;49.156;8.982;2023-05-06T12:47:54;1.38;;;0.80;;
17915;SDS011;9083;49.156;8.982;2023-05-06T12:50:30;0.70;;;0.70;;
17915;SDS011;9083;49.156;8.982;2023-05-06T12:52:56;0.98;;;0.90;;
17915;SDS011;9083;49.156;8.982;2023-05-06T12:55:23;1.88;;;1.00;;
17915;SDS011;9083;49.156;8.982;2023-05-06T12:57:50;1.73;;;0.75;;
17915;SDS011;9083;49.156;8.982;2023-05-06T13:00:17;0.68;;;0.68;;
17915;SDS011;9083;49.156;8.982;2023-05-06T13:02:45;1.95;;;1.23;;
17915;SDS011;9083;49.156;8.982;2023-05-06T13:05:11;1.05;;;1.05;;
17915;SDS011;9083;49.156;8.982;2023-05-06T13:07:38;1.30;;;1.20;;
17915;SDS011;9083;49.156;8.982;2023-05-06T13:10:04;1.05;;;0.90;;
17915;SDS011;9083;49.156;8.982;2023-05-06T13:12:31;0.98;;;0.98;;
17915;SDS011;9083;49.156;8.982;2023-05-06T13:14:57;0.82;;;0.82;;
17915;SDS011;9083;49.156;8.982;2023-05-06T13:17:24;1.33;;;1.20;;
17915;SDS011;9083;49.156;8.982;2023-05-06T13:19:52;1.20;;;1.20;;
17915;SDS011;9083;49.156;8.982;2023-05-06T13:22:18;2.20;;;1.30;;
17915;SDS011;9083;49.156;8.982;2023-05-06T13:24:44;1.75;;;0.82;;
17915;SDS011;9083;49.156;8.982;2023-05-06T13:27:11;2.17;;;0.80;;
17915;SDS011;9083;49.156;8.982;2023-05-06T13:29:37;2.58;;;0.77;;
17915;SDS011;9083;49.156;8.982;2023-05-06T13:32:04;2.90;;;0.90;;
17915;SDS011;9083;49.156;8.982;2023-05-06T13:34:31;0.52;;;0.52;;
17915;SDS011;9083;49.156;8.982;2023-05-06T13:36:58;1.20;;;1.00;;
17915;SDS011;9083;49.156;8.982;2023-05-06T13:39:25;1.85;;;0.70;;
17915;SDS011;9083;49.156;8.982;2023-05-06T13:41:51;0.80;;;0.80;;
17915;SDS011;9083;49.156;8.982;2023-05-06T13:44:18;0.70;;;0.70;;
17915;SDS011;9083;49.156;8.982;2023-05-06T13:46:44;1.70;;;0.80;;
17915;SDS011;9083;49.156;8.982;2023-05-06T13:49:11;1.60;;;0.90;;
17915;SDS011;9083;49.156;8.982;2023-05-06T13:51:37;1.52;;;0.73;;
17915;SDS011;9083;49.156;8.982;2023-05-06T13:54:05;0.73;;;0.70;;
17915;SDS011;9083;49.156;8.982;2023-05-06T13:56:32;1.45;;;1.00;;
17915;SDS011;9083;49.156;8.982;2023-05-06T13:58:59;0.80;;;0.77;;
17915;SDS011;9083;49.156;8.982;2023-05-06T14:01:25;1.75;;;1.10;;
17915;SDS011;9083;49.156;8.982;2023-05-06T14:03:52;0.68;;;0.68;;
17915;SDS011;9083;49.156;8.982;2023-05-06T14:06:18;2.45;;;1.20;;
17915;SDS011;9083;49.156;8.982;2023-05-06T14:08:45;0.80;;;0.80;;
17915;SDS011;9083;49.156;8.982;2023-05-06T14:11:12;0.70;;;0.70;;
17915;SDS011;9083;49.156;8.982;2023-05-06T14:13:39;0.95;;;0.70;;
17915;SDS011;9083;49.156;8.982;2023-05-06T14:16:05;0.52;;;0.52;;
17915;SDS011;9083;49.156;8.982;2023-05-06T14:18:32;0.80;;;0.80;;
17915;SDS011;9083;49.156;8.982;2023-05-06T14:20:58;0.88;;;0.82;;
17915;SDS011;9083;49.156;8.982;2023-05-06T14:23:25;1.13;;;0.90;;
17915;SDS011;9083;49.156;8.982;2023-05-06T14:25:51;0.60;;;0.60;;
17915;SDS011;9083;49.156;8.982;2023-05-06T14:28:19;3.03;;;2.10;;
17915;SDS011;9083;49.156;8.982;2023-05-06T14:30:45;2.55;;;1.30;;
17915;SDS011;9083;49.156;8.982;2023-05-06T14:33:11;1.00;;;0.90;;
17915;SDS011;9083;49.156;8.982;2023-05-06T14:35:41;0.80;;;0.80;;
17915;SDS011;9083;49.156;8.982;2023-05-06T14:38:10;0.80;;;0.80;;
17915;SDS011;9083;49.156;8.982;2023-05-06T14:40:36;2.42;;;0.90;;
17915;SDS011;9083;49.156;8.982;2023-05-06T14:43:02;4.13;;;0.90;;
17915;SDS011;9083;49.156;8.982;2023-05-06T14:45:31;0.68;;;0.68;;
17915;SDS011;9083;49.156;8.982;2023-05-06T14:47:57;0.55;;;0.55;;
17915;SDS011;9083;49.156;8.982;2023-05-06T14:50:23;2.05;;;0.88;;
17915;SDS011;9083;49.156;8.982;2023-05-06T14:52:50;0.93;;;0.80;;
17915;SDS011;9083;49.156;8.982;2023-05-06T14:55:16;0.60;;;0.55;;
17915;SDS011;9083;49.156;8.982;2023-05-06T14:57:44;1.38;;;0.75;;
17915;SDS011;9083;49.156;8.982;2023-05-06T15:00:10;3.80;;;1.00;;